Latest Weather Observations for Leonora Airport

IDW60801

Issued at 7:04 am WST Wednesday 22 February 2017 (issued every 30 minutes, with the page automatically refreshed every 10 minutes)

About weather observations | Map of weather stations | Latest weather observations for WA | Other Formats
Station Details ID: 012241 Name: LEONORA AERO Lat: -28.88 Lon: 121.32 Height: 370.0 m
Data from the previous 72 hours. | See also: Recent months at Leonora Airport
Date/Time
WST
Temp
°C
App
Temp
°C
Dew
Point
°C
Rel
Hum
%
Delta-T
°C
Wind Press
QNH
hPa
Press
MSL
hPa
Rain since
9am
mm
Dir  Spd
km/h
Gust
km/h
Spd
kts
Gust
kts
22/07:00am 16.8 12.6 3.8 42 6.1 SE 15 22 8 12 1019.4 1016.9 0.0
22/06:30am 16.3 12.5 4.0 44 5.8 SE 13 19 7 10 1019.1 1016.6 0.0
22/06:00am 15.4 12.4 4.2 47 5.3 SE 9 13 5 7 1018.4 1015.8 0.0
22/05:30am 15.5 12.0 3.6 45 5.6 SE 11 19 6 10 1017.9 1015.4 0.0
22/05:00am 15.8 11.9 3.6 44 5.7 SE 13 17 7 9 1017.5 1015.0 0.0
22/04:30am 16.2 12.3 3.6 43 5.9 SE 13 19 7 10 1017.1 1014.6 0.0
22/04:00am 16.5 13.4 3.6 42 6.1 SE 9 15 5 8 1016.7 1014.2 0.0
22/03:30am 17.3 12.6 3.2 39 6.6 SE 17 22 9 12 1016.4 1013.8 0.0
22/03:00am 17.9 12.8 3.0 37 7.0 SE 19 26 10 14 1016.2 1013.6 0.0
22/02:30am 18.4 13.2 2.7 35 7.4 SE 19 28 10 15 1015.8 1013.2 0.0
22/02:00am 18.6 13.9 3.3 36 7.3 SSE 17 24 9 13 1015.7 1013.1 0.0
22/01:30am 18.6 14.8 4.0 38 7.0 SSE 13 17 7 9 1015.7 1013.1 0.0
22/01:00am 19.1 15.3 4.1 37 7.3 S 13 19 7 10 1015.8 1013.2 0.0
22/12:30am 19.4 16.5 4.7 38 7.2 SSE 9 13 5 7 1015.7 1013.1 0.0
22/12:00am 20.1 16.4 4.6 36 7.6 S 13 19 7 10 1015.6 1013.0 0.0
 
Date/Time
WST
Temp
°C
App
Temp
°C
Dew
Point
°C
Rel
Hum
%
Delta-T
°C
Wind Press
QNH
hPa
Press
MSL
hPa
Rain since
9am
mm
Dir  Spd
km/h
Gust
km/h
Spd
kts
Gust
kts
21/11:30pm 20.5 17.3 5.3 37 7.6 S 11 19 6 10 1015.6 1013.0 0.0
21/11:00pm 21.3 17.5 5.6 36 8.0 S 15 22 8 12 1015.5 1012.9 0.0
21/10:30pm 21.9 18.3 6.6 37 7.9 S 15 22 8 12 1015.2 1012.7 0.0
21/10:00pm 22.5 18.7 7.5 38 7.9 S 17 26 9 14 1015.1 1012.6 0.0
21/09:30pm 22.9 19.8 7.1 36 8.3 SSW 13 19 7 10 1014.7 1012.2 0.0
21/09:00pm 23.5 19.6 7.2 35 8.6 SSW 17 20 9 11 1014.4 1011.9 0.0
21/08:30pm 23.9 20.4 7.1 34 8.9 SSW 15 22 8 12 1014.0 1011.4 0.0
21/08:00pm 24.4 21.3 7.1 33 9.2 SSW 13 20 7 11 1013.5 1010.9 0.0
21/07:30pm 24.8 21.5 6.5 31 9.6 SSW 13 19 7 10 1013.0 1010.4 0.0
21/07:00pm 25.8 21.2 5.4 27 10.6 SSW 19 28 10 15 1012.4 1009.9 0.0
21/06:30pm 26.8 21.5 5.1 25 11.3 SSW 22 30 12 16 1011.7 1009.2 0.0
21/06:00pm 28.2 22.9 5.1 23 12.1 SSW 22 35 12 19 1011.2 1008.6 0.0
21/05:30pm 29.3 23.7 5.4 22 12.7 SW 24 35 13 19 1010.6 1008.0 0.0
21/05:00pm 29.4 22.8 4.1 20 13.2 WSW 28 41 15 22 1010.1 1007.5 0.0
21/04:30pm 30.2 22.7 3.3 18 13.8 WSW 32 46 17 25 1010.0 1007.4 0.0
21/04:00pm 29.9 22.2 2.2 17 14.0 WSW 32 43 17 23 1009.9 1007.3 0.0
21/03:30pm 30.2 23.3 2.5 17 14.1 WSW 28 39 15 21 1009.8 1007.2 0.0
21/03:04pm 30.2 22.5 2.5 17 14.1 WSW 32 44 17 24 1009.9 1007.3 0.0
21/03:00pm 30.7 23.5 2.9 17 14.3 SW 30 43 16 23 1009.9 1007.3 0.0
21/02:41pm 30.7 24.0 3.7 18 14.0 WSW 28 46 15 25 1009.6 1007.1 0.0
21/02:30pm 31.1 23.9 3.2 17 14.4 WSW 30 44 16 24 1009.8 1007.2 0.0
21/02:00pm 30.6 23.1 4.4 19 13.8 WSW 33 46 18 25 1009.8 1007.2 0.0
21/01:52pm 30.4 23.4 4.2 19 13.7 WSW 30 48 16 26 1009.9 1007.3 0.0
21/01:30pm 30.2 24.7 9.1 27 12.0 WSW 28 43 15 23 1009.9 1007.3 0.0
21/01:20pm 29.7 24.4 9.8 29 11.4 WSW 28 48 15 26 1009.9 1007.3 0.0
21/01:00pm 30.0 24.8 11.5 32 10.9 W 30 39 16 21 1010.1 1007.5 0.0
21/12:30pm 28.2 23.4 14.1 42 8.6 W 32 44 17 24 1010.3 1007.7 0.0
21/12:00pm 27.4 24.1 17.0 53 6.6 W 30 46 16 25 1010.8 1008.2 0.0
21/11:30am 28.0 25.3 18.4 56 6.2 W 30 43 16 23 1010.9 1008.3 0.0
21/11:00am 26.2 24.0 18.6 63 4.9 WSW 28 37 15 20 1011.0 1008.4 0.0
21/10:30am 26.6 23.9 18.5 61 5.2 W 30 39 16 21 1011.0 1008.4 0.0
21/10:00am 26.6 25.4 18.5 61 5.2 WSW 22 30 12 16 1011.1 1008.5 0.0
21/09:30am 26.1 24.7 18.0 61 5.2 WSW 22 35 12 19 1011.3 1008.7 0.0
21/09:00am 26.5 24.9 18.4 61 5.2 WNW 24 33 13 18 1011.0 1008.4 0.0
21/08:30am 25.9 23.7 17.8 61 5.2 W 26 35 14 19 1011.0 1008.4 0.0
21/08:00am 25.6 23.4 17.8 62 5.0 WNW 26 37 14 20 1010.5 1007.9 0.0
21/07:30am 25.1 25.6 18.3 66 4.4 NW 13 20 7 11 1010.5 1007.9 0.0
21/07:00am 23.9 25.7 18.8 73 3.3 WNW 7 11 4 6 1010.2 1007.6 0.0
21/06:30am 23.7 25.2 18.8 74 3.2 NW 9 11 5 6 1010.4 1007.8 0.0
21/06:00am 23.7 24.4 17.9 70 3.7 NW 11 15 6 8 1009.9 1007.3 0.0
21/05:30am 25.0 25.0 17.2 62 4.9 NNW 13 17 7 9 1009.8 1007.2 0.0
21/05:00am 24.8 25.6 17.3 63 4.7 NNW 9 13 5 7 1009.5 1007.0 0.0
21/04:30am 24.7 25.5 17.2 63 4.7 NNW 9 13 5 7 1009.4 1006.9 0.0
21/04:00am 24.8 25.8 16.8 61 5.0 WNW 7 9 4 5 1009.5 1007.0 0.0
21/03:30am 25.0 27.3 16.7 60 5.2 CALM 0 0 0 0 1009.5 1007.0 0.0
21/03:00am 24.9 26.1 16.9 61 5.0 W 6 7 3 4 1009.8 1007.2 0.0
21/02:30am 25.0 25.4 17.2 62 4.9 WNW 11 15 6 8 1010.6 1008.0 0.0
21/02:00am 25.1 26.7 17.8 64 4.7 ENE 6 17 3 9 1010.8 1008.2 0.0
21/01:30am 25.5 26.3 17.2 60 5.2 WNW 9 13 5 7 1011.4 1008.8 0.0
21/01:00am 25.6 26.4 17.3 60 5.3 WNW 9 13 5 7 1011.1 1008.5 0.0
21/12:30am 25.6 26.6 17.8 62 5.0 W 9 13 5 7 1011.2 1008.6 0.0
21/12:00am 26.0 27.1 17.9 61 5.2 W 9 13 5 7 1011.3 1008.7 0.0
 
Date/Time
WST
Temp
°C
App
Temp
°C
Dew
Point
°C
Rel
Hum
%
Delta-T
°C
Wind Press
QNH
hPa
Press
MSL
hPa
Rain since
9am
mm
Dir  Spd
km/h
Gust
km/h
Spd
kts
Gust
kts
20/11:30pm 26.2 26.8 17.8 60 5.4 WSW 11 13 6 7 1011.3 1008.7 0.0
20/11:00pm 26.7 26.7 17.2 56 6.0 SW 13 19 7 10 1011.4 1008.8 0.0
20/10:30pm 27.1 26.4 16.4 52 6.7 SSW 15 20 8 11 1011.3 1008.7 0.0
20/10:00pm 28.0 25.9 15.3 46 7.9 SSW 20 30 11 16 1011.3 1008.7 0.0
20/09:48pm 28.6 25.7 14.1 41 8.8 SW 22 35 12 19 1011.2 1008.6 0.0
20/09:38pm 29.2 25.7 12.2 35 10.1 SW 22 37 12 20 1011.1 1008.5 0.0
20/09:30pm 29.7 26.0 10.3 30 11.2 W 20 37 11 20 1011.0 1008.4 0.0
20/09:00pm 30.4 27.1 6.3 22 13.1 N 13 19 7 10 1010.5 1007.9 0.0
20/08:30pm 30.9 26.8 6.0 21 13.5 N 17 22 9 12 1010.5 1007.9 0.0
20/08:00pm 31.0 27.5 5.4 20 13.7 N 13 17 7 9 1010.3 1007.7 0.0
20/07:30pm 31.4 28.5 6.5 21 13.6 N 11 13 6 7 1009.9 1007.3 0.0
20/07:00pm 32.0 28.9 5.5 19 14.3 N 11 13 6 7 1009.3 1006.8 0.0
20/06:30pm 32.8 30.4 5.4 18 14.8 NNW 7 9 4 5 1009.1 1006.5 0.0
20/06:00pm 33.8 30.5 2.6 14 16.2 NNW 9 11 5 6 1008.9 1006.3 0.0
20/05:30pm 34.8 30.9 1.2 12 17.2 NNE 11 15 6 8 1008.7 1006.1 0.0
20/05:00pm 34.8 33.0 3.4 14 16.7 NNE 2 9 1 5 1008.8 1006.2 0.0
20/04:30pm 34.9 32.2 2.4 13 16.9 N 6 13 3 7 1009.1 1006.5 0.0
20/04:00pm 35.3 33.4 4.8 15 16.6 ENE 4 13 2 7 1009.4 1006.9 0.0
20/03:30pm 35.2 32.1 3.7 14 16.8 NNE 9 17 5 9 1009.6 1007.1 0.0
20/03:00pm 34.7 30.8 1.1 12 17.2 N 11 20 6 11 1010.2 1007.6 0.0
20/02:30pm 34.2 31.0 2.9 14 16.4 NW 9 17 5 9 1010.5 1007.9 0.0
20/02:00pm 34.4 32.2 3.1 14 16.5 SSW 4 15 2 8 1010.9 1008.3 0.0
20/01:30pm 33.7 30.8 4.4 16 15.7 NE 9 17 5 9 1011.4 1008.8 0.0
20/01:00pm 33.7 31.7 6.1 18 15.2 NNW 6 13 3 7 1012.0 1009.5 0.0
20/12:30pm 32.3 29.5 5.0 18 14.6 NW 9 19 5 10 1012.6 1010.0 0.0
20/12:00pm 31.9 29.5 5.4 19 14.3 N 7 17 4 9 1013.0 1010.4 0.0
20/11:30am 30.7 26.7 6.6 22 13.1 NNW 17 26 9 14 1013.5 1010.9 0.0
20/11:00am 30.2 27.2 6.1 22 13.0 NNW 11 19 6 10 1013.9 1011.3 0.0
20/10:30am 29.4 26.4 6.1 23 12.5 N 11 24 6 13 1014.4 1011.9 0.0
20/10:00am 29.6 25.8 5.6 22 12.8 N 15 24 8 13 1014.8 1012.3 0.0
20/09:30am 28.0 23.6 5.0 23 12.0 N 17 20 9 11 1015.3 1012.8 0.0
20/09:00am 27.3 22.6 5.0 24 11.6 NNE 19 24 10 13 1015.5 1012.9 0.0
20/08:30am 26.9 23.0 5.2 25 11.3 NNE 15 20 8 11 1015.9 1013.3 0.0
20/08:00am 25.6 21.9 4.7 26 10.7 N 13 20 7 11 1016.1 1013.5 0.0
20/07:30am 24.4 20.7 4.7 28 10.0 N 13 20 7 11 1016.1 1013.5 0.0
20/07:00am 23.3 19.3 4.8 30 9.4 N 15 20 8 11 1015.9 1013.3 0.0
20/06:30am 22.4 17.6 4.5 31 9.0 NNE 19 28 10 15 1015.1 1012.6 0.0
20/06:00am 21.7 16.7 4.7 33 8.5 NNE 20 28 11 15 1014.7 1012.2 0.0
20/05:30am 21.7 16.9 4.7 33 8.5 NE 19 24 10 13 1014.6 1012.1 0.0
20/05:00am 21.9 17.9 4.9 33 8.5 NNE 15 22 8 12 1014.7 1012.2 0.0
20/04:30am 21.8 18.3 5.3 34 8.3 NE 13 19 7 10 1014.5 1012.0 0.0
20/04:00am 21.9 19.2 5.8 35 8.2 NE 9 17 5 9 1014.7 1012.2 0.0
20/03:30am 22.0 19.0 5.8 35 8.3 NE 11 17 6 9 1014.6 1012.1 0.0
20/03:00am 21.8 18.5 6.5 37 7.9 NE 13 15 7 8 1014.5 1012.0 0.0
20/02:30am 22.2 19.7 6.4 36 8.2 NNE 9 11 5 6 1014.7 1012.2 0.0
20/02:00am 22.5 20.2 7.5 38 7.9 NE 9 13 5 7 1014.6 1012.1 0.0
20/01:30am 22.8 20.6 7.8 38 8.0 NE 9 15 5 8 1014.9 1012.4 0.0
20/01:00am 22.7 20.8 9.1 42 7.4 NE 9 13 5 7 1015.2 1012.7 0.0
20/12:30am 23.2 21.4 9.6 42 7.5 NE 9 11 5 6 1015.5 1012.9 0.0
20/12:00am 23.7 22.0 9.7 41 7.8 ENE 9 13 5 7 1015.7 1013.1 0.0
 
Date/Time
WST
Temp
°C
App
Temp
°C
Dew
Point
°C
Rel
Hum
%
Delta-T
°C
Wind Press
QNH
hPa
Press
MSL
hPa
Rain since
9am
mm
Dir  Spd
km/h
Gust
km/h
Spd
kts
Gust
kts
19/11:30pm 24.3 22.4 9.1 38 8.4 ENE 9 11 5 6 1015.8 1013.2 0.0
19/11:00pm 24.4 23.3 9.9 40 8.1 ENE 6 7 3 4 1016.0 1013.4 0.0
19/10:30pm 25.2 23.2 8.7 35 9.1 ENE 9 11 5 6 1015.9 1013.3 0.0
19/10:00pm 25.5 23.8 8.5 34 9.3 ENE 7 9 4 5 1016.1 1013.5 0.0
19/09:30pm 26.1 24.0 8.1 32 9.8 E 9 13 5 7 1016.1 1013.5 0.0
19/09:00pm 26.3 23.8 8.3 32 9.9 E 11 13 6 7 1016.1 1013.5 0.0
19/08:30pm 26.5 23.6 8.0 31 10.1 ESE 13 15 7 8 1016.0 1013.4 0.0
19/08:00pm 27.0 23.8 8.4 31 10.2 ESE 15 17 8 9 1015.8 1013.2 0.0
19/07:30pm 27.9 24.9 7.7 28 11.1 SE 13 17 7 9 1015.6 1013.0 0.0
19/07:00pm 28.7 25.5 6.7 25 11.9 SE 13 17 7 9 1015.1 1012.6 0.0
19/06:30pm 29.7 26.9 7.0 24 12.4 SE 11 17 6 9 1014.8 1012.3 0.0
19/06:00pm 30.6 27.9 5.8 21 13.3 ESE 9 15 5 8 1014.7 1012.2 0.0
19/05:30pm 31.1 28.5 6.2 21 13.5 ESE 9 13 5 7 1014.8 1012.3 0.0
19/05:00pm 31.2 27.6 4.9 19 14.0 E 13 20 7 11 1014.8 1012.3 0.0
19/04:30pm 31.1 28.4 5.5 20 13.7 SE 9 20 5 11 1014.9 1012.4 0.0
19/04:00pm 31.5 28.5 5.8 20 13.9 SE 11 19 6 10 1014.8 1012.3 0.0
19/03:30pm 31.2 28.3 6.3 21 13.5 ENE 11 19 6 10 1015.0 1012.5 0.0
19/03:00pm 30.9 27.7 5.3 20 13.7 SE 11 20 6 11 1015.3 1012.8 0.0
19/02:30pm 31.1 28.4 5.5 20 13.7 NE 9 20 5 11 1015.8 1013.2 0.0
19/02:00pm 29.7 26.9 5.1 21 13.0 ESE 9 17 5 9 1016.2 1013.6 0.0
19/01:30pm 30.0 26.3 4.6 20 13.3 ENE 13 28 7 15 1016.6 1014.1 0.0
19/01:00pm 29.7 26.5 5.1 21 13.0 E 11 20 6 11 1017.0 1014.5 0.0
19/12:30pm 28.8 25.1 6.2 24 12.1 ENE 15 22 8 12 1017.3 1014.8 0.0
19/12:00pm 28.7 25.5 6.7 25 11.9 ENE 13 22 7 12 1017.8 1015.3 0.0
19/11:30am 27.5 23.7 5.7 25 11.5 E 15 22 8 12 1018.5 1015.9 0.0
19/11:00am 26.9 24.9 6.9 28 10.7 NE 7 15 4 8 1019.0 1016.5 0.0
19/10:30am 25.4 22.1 6.6 30 10.0 NE 13 20 7 11 1019.6 1017.1 0.0
19/10:00am 24.9 21.3 6.6 31 9.6 ENE 15 22 8 12 1020.1 1017.6 0.0
19/09:30am 24.0 19.7 7.2 34 8.9 ENE 19 32 10 17 1020.3 1017.8 0.0
19/09:00am 23.0 18.7 7.1 36 8.4 NE 19 26 10 14 1020.5 1018.0 0.0
19/08:30am 22.2 17.4 7.2 38 7.9 ENE 22 30 12 16 1020.7 1018.2 0.0
19/08:00am 21.4 16.2 7.3 40 7.4 ENE 24 32 13 17 1020.8 1018.3 0.0
19/07:30am 20.9 15.8 7.5 42 7.0 ENE 24 35 13 19 1020.7 1018.2 0.0

Other Formats:

Comma delimited format used in spreadsheet applications
http://www.bom.gov.au/fwo/IDW60801/IDW60801.94450.axf

JavaScript Object Notation format (JSON) in row-major order
http://www.bom.gov.au/fwo/IDW60801/IDW60801.94450.json